• Join FlightAware (Why Join?)
  • Login
  • US Flag 
11:49AM EDT


 

Airport Tracker/Info


-or-


 

Live Flight TrackerFlight Track Log ✈ SKW2669 ✈ 31-May-2013 ✈ KSLC - KLAX

Flight Track Log - Related Links

Times and Time Zones

All times are in EDT time to prevent confusion due to time zone crossing. See the SKW2669 flight status page for this flight to view local times or setup timezone preferences in your user account.

Time Position Orientation Groundspeed Altitude Reporting Facility
EDT Latitude Longitude Course Direction KTS MPH feet Rate Location/Type
05:44PM 40.8014 -111.9642 360° North 169 194 4,800  Level Salt Lake Center
05:44PM 40.8156 -111.9642 360° North 176 203 5,300 1,320 Climbing Salt Lake Center
05:45PM 40.8278 -112.0386 282° West 226 260 6,600 1,740 Climbing Salt Lake Center
05:46PM 40.8233 -112.1400 267° West 279 321 9,000 2,040 Climbing Salt Lake Center
05:47PM 40.7969 -112.2381 250° West 292 336 10,900 1,920 Climbing Salt Lake Center
05:48PM 40.6972 -112.2894 201° Southwest 330 380 13,000 1,800 Climbing Salt Lake Center
05:49PM 40.5983 -112.3056 187° South 359 413 14,600 1,440 Climbing Salt Lake Center
05:50PM 40.4953 -112.3261 189° South 375 432 16,000 1,260 Climbing Salt Lake Center
05:51PM 40.3883 -112.3494 189° South 389 448 17,300 960 Climbing Salt Lake Center
05:52PM 40.2836 -112.3981 200° South 405 466 18,100 840 Climbing Salt Lake Center
05:53PM 40.1847 -112.4683 209° Southwest 408 470 19,100 1,140 Climbing Salt Lake Center
05:54PM 40.0647 -112.5525 208° Southwest 407 468 20,500 1,080 Climbing Salt Lake Center
05:55PM 39.9633 -112.6247 209° Southwest 416 479 21,400 900 Climbing Salt Lake Center
05:56PM 39.8622 -112.6961 208° Southwest 415 478 22,400 1,020 Climbing Salt Lake Center
05:57PM 39.7561 -112.7692 208° Southwest 417 480 23,500 960 Climbing Salt Lake Center
05:58PM 39.6506 -112.8289 204° Southwest 411 473 24,500 780 Climbing Salt Lake Center
05:59PM 39.5350 -112.8625 193° South 422 486 25,200 540 Climbing Salt Lake Center
06:00PM 39.4183 -112.9014 194° South 431 496 25,700 480 Climbing Salt Lake Center
06:01PM 39.3008 -112.9419 195° South 436 502 26,300 540 Climbing Salt Lake Center
06:03PM 39.1564 -112.9881 194° South 444 511 26,900 480 Climbing Salt Lake Center
06:04PM 39.0358 -113.0267 194° South 446 513 27,400 480 Climbing Salt Lake Center
06:05PM 38.9147 -113.0658 194° South 448 516 27,900 480 Climbing Salt Lake Center
06:06PM 38.7922 -113.1053 194° South 453 521 28,400 600 Climbing Salt Lake Center
06:07PM 38.6714 -113.1433 194° South 450 518 29,200 780 Climbing Salt Lake Center
06:08PM 38.5531 -113.1811 194° South 441 507 30,100 780 Climbing Salt Lake Center
06:09PM 38.4372 -113.2181 194° South 433 498 30,800 720 Climbing Salt Lake Center
06:10PM 38.2986 -113.2628 194° South 428 493 31,700 540 Climbing Salt Lake Center
06:11PM 38.1856 -113.2981 194° South 422 486 32,000 120 Climbing Salt Lake Center
06:12PM 38.0675 -113.3347 194° South 433 498 32,000  Level Salt Lake Center
06:13PM 37.9453 -113.3731 194° South 449 517 32,000  Level Salt Lake Center
06:14PM 37.8333 -113.4403 205° Southwest 447 514 32,000  Level Salt Lake Center
06:15PM 37.7300 -113.5225 212° Southwest 443 510 32,000  Level Salt Lake Center
06:16PM 37.6081 -113.6200 212° Southwest 437 503 32,000  Level Salt Lake Center
06:17PM 37.5058 -113.7003 212° Southwest 435 501 32,000  Level Salt Lake Center
06:18PM 37.4053 -113.7808 212° Southwest 432 497 32,000  Level Salt Lake Center
06:19PM 37.3647 -113.8114 211° Southwest 428 493 32,000  Level Los Angeles Center
06:20PM 37.2467 -113.9031 212° Southwest 431 496 32,000  Level Los Angeles Center
06:21PM 37.1225 -113.9994 212° Southwest 434 499 32,000  Level Los Angeles Center
06:22PM 37.0178 -114.0794 211° Southwest 438 504 32,000  Level Los Angeles Center
06:23PM 36.9133 -114.1606 212° Southwest 440 506 32,000  Level Los Angeles Center
06:24PM 36.8097 -114.2408 212° Southwest 438 504 32,000  Level Los Angeles Center
06:25PM 36.7058 -114.3217 212° Southwest 438 504 32,000  Level Los Angeles Center
06:26PM 36.6022 -114.4008 212° Southwest 435 501 32,000  Level Los Angeles Center
06:27PM 36.4983 -114.4808 212° Southwest 436 502 32,000  Level Los Angeles Center
06:28PM 36.3744 -114.5756 212° Southwest 435 501 32,000  Level Los Angeles Center
06:29PM 36.2708 -114.6550 212° Southwest 435 501 32,000  Level Los Angeles Center
06:30PM 36.1667 -114.7339 211° Southwest 437 503 32,000  Level Los Angeles Center
06:31PM 36.0753 -114.8308 221° Southwest 433 498 32,000  Level Los Angeles Center
06:32PM 35.9919 -114.9386 226° Southwest 431 496 32,000  Level Los Angeles Center
06:33PM 35.9103 -115.0458 227° Southwest 428 493 32,000  Level Los Angeles Center
06:34PM 35.8272 -115.1528 226° Southwest 430 495 32,000  Level Los Angeles Center
06:35PM 35.7283 -115.2825 227° Southwest 431 496 32,000  Level Los Angeles Center
06:36PM 35.6453 -115.3897 226° Southwest 430 495 32,000  Level Los Angeles Center
06:37PM 35.5567 -115.4911 223° Southwest 439 505 32,000  Level Los Angeles Center
06:38PM 35.4458 -115.5481 203° Southwest 434 499 32,000  Level Los Angeles Center
06:39PM 35.3267 -115.6072 202° Southwest 435 501 32,000  Level Los Angeles Center
06:40PM 35.2292 -115.6939 216° Southwest 436 502 32,000  Level Los Angeles Center
06:41PM 35.1478 -115.7994 227° Southwest 428 493 32,000  Level Los Angeles Center
06:42PM 35.0642 -115.9050 226° Southwest 430 495 32,000  Level Los Angeles Center
06:43PM 34.9817 -116.0106 226° Southwest 430 495 32,000  Level Los Angeles Center
06:44PM 34.8806 -116.1364 226° Southwest 431 496 32,000 -420 Level Los Angeles Center
06:45PM 34.7992 -116.2414 227° Southwest 428 493 31,200 -780 Descending Los Angeles Center
06:46PM 34.7325 -116.3269 227° Southwest 433 498 30,400 -960 Descending Los Angeles Center
06:48PM 34.6303 -116.4547 226° Southwest 439 505 29,200 -1,080 Descending Los Angeles Center
06:49PM 34.5453 -116.5614 226° Southwest 438 504 28,200 -1,020 Descending Los Angeles Center
06:50PM 34.4606 -116.6689 226° Southwest 438 504 27,200 -1,800 Descending Los Angeles Center
06:51PM 34.3572 -116.7989 226° Southwest 446 513 24,500 -2,280 Descending Los Angeles Center
06:52PM 34.2681 -116.9072 225° Southwest 451 519 22,500 -2,040 Descending Los Angeles Center
06:53PM 34.1831 -117.0128 226° Southwest 443 510 20,400 -1,740 Descending Los Angeles Center
06:54PM 34.1114 -117.1025 226° Southwest 406 467 19,000 -1,200 Descending Los Angeles Center
06:55PM 34.0536 -117.2297 241° Southwest 369 425 17,700 -1,740 Descending Los Angeles Center
06:56PM 34.0333 -117.3667 260° West 347 399 15,200 -2,580 Descending Southern California TRACON
06:57PM 34.0333 -117.4833 270° West 339 390 12,900 -2,100 Descending Southern California TRACON
06:58PM 34.0333 -117.6000 270° West 323 372 11,100 -1,380 Descending Southern California TRACON
06:59PM 34.0167 -117.7000 259° West 290 334 10,100 -1,080 Descending Southern California TRACON
07:00PM 34.0167 -117.8000 270° West 289 333 9,000 -1,200 Descending Southern California TRACON
07:01PM 34.0000 -117.9000 259° West 290 334 7,800 -1,260 Descending Southern California TRACON
07:02PM 34.0000 -117.9833 270° West 285 328 6,500 -1,320 Descending Southern California TRACON
07:03PM 33.9833 -118.0833 259° West 285 328 5,300 -1,380 Descending Southern California TRACON
07:04PM 33.9833 -118.1833 270° West 285 328 3,800 -1,140 Descending Southern California TRACON
07:04PM 33.9742 -118.1942 224° Southwest 286 329 3,500 -1,200 Descending Los Angeles Center
07:06PM 33.9628 -118.3128 263° West 224 258 1,700 -1,140 Descending Los Angeles Center
07:07PM 33.9575 -118.3597 262° West 169 194 900 -720 Descending Los Angeles Center
07:08PM 33.9531 -118.4028 263° West 143 165 200 -720 Descending Los Angeles Center
07:10PM 33.9425 -118.4081 259° West  Level Estimated